sensor_id;sensor_type;location;lat;lon;timestamp;pressure;altitude;pressure_sealevel;temperature;humidity
21182;BME280;10749;46.296;7.524;2023-01-31T00:00:04;95646.31;;;2.99;46.31
21182;BME280;10749;46.296;7.524;2023-01-31T00:02:32;95646.31;;;2.99;46.52
21182;BME280;10749;46.296;7.524;2023-01-31T00:04:58;95652.63;;;2.97;45.76
21182;BME280;10749;46.296;7.524;2023-01-31T00:07:23;95651.69;;;2.98;45.96
21182;BME280;10749;46.296;7.524;2023-01-31T00:09:48;95650.72;;;2.99;46.33
21182;BME280;10749;46.296;7.524;2023-01-31T00:12:13;95653.84;;;3.04;46.37
21182;BME280;10749;46.296;7.524;2023-01-31T00:14:39;95657.53;;;3.01;46.32
21182;BME280;10749;46.296;7.524;2023-01-31T00:17:04;95652.16;;;3.03;46.30
21182;BME280;10749;46.296;7.524;2023-01-31T00:19:29;95659.66;;;3.07;46.34
21182;BME280;10749;46.296;7.524;2023-01-31T00:21:54;95660.25;;;3.00;46.62
21182;BME280;10749;46.296;7.524;2023-01-31T00:24:20;95654.50;;;2.95;46.22
21182;BME280;10749;46.296;7.524;2023-01-31T00:26:45;95653.53;;;2.85;46.28
21182;BME280;10749;46.296;7.524;2023-01-31T00:29:12;95647.31;;;2.74;46.21
21182;BME280;10749;46.296;7.524;2023-01-31T00:31:37;95653.56;;;2.61;46.11
21182;BME280;10749;46.296;7.524;2023-01-31T00:34:04;95642.63;;;2.56;46.42
21182;BME280;10749;46.296;7.524;2023-01-31T00:36:32;95643.88;;;2.50;46.40
21182;BME280;10749;46.296;7.524;2023-01-31T00:38:59;95641.16;;;2.52;46.64
21182;BME280;10749;46.296;7.524;2023-01-31T00:41:27;95647.22;;;2.52;46.41
21182;BME280;10749;46.296;7.524;2023-01-31T00:43:53;95637.22;;;2.46;46.43
21182;BME280;10749;46.296;7.524;2023-01-31T00:46:18;95641.00;;;2.42;46.47
21182;BME280;10749;46.296;7.524;2023-01-31T00:48:48;95644.25;;;2.33;46.84
21182;BME280;10749;46.296;7.524;2023-01-31T00:51:14;95637.34;;;2.32;46.42
21182;BME280;10749;46.296;7.524;2023-01-31T00:53:40;95639.59;;;2.25;46.52
21182;BME280;10749;46.296;7.524;2023-01-31T00:56:07;95638.97;;;2.22;46.59
21182;BME280;10749;46.296;7.524;2023-01-31T00:58:33;95639.41;;;2.16;46.76
21182;BME280;10749;46.296;7.524;2023-01-31T01:01:22;95644.53;;;2.17;46.82
21182;BME280;10749;46.296;7.524;2023-01-31T01:03:48;95636.78;;;2.16;46.56
21182;BME280;10749;46.296;7.524;2023-01-31T01:06:13;95648.41;;;2.12;46.73
21182;BME280;10749;46.296;7.524;2023-01-31T01:08:40;95654.50;;;2.00;46.74
21182;BME280;10749;46.296;7.524;2023-01-31T01:11:15;95653.69;;;1.86;47.00
21182;BME280;10749;46.296;7.524;2023-01-31T01:13:41;95654.75;;;1.84;46.85
21182;BME280;10749;46.296;7.524;2023-01-31T01:16:09;95662.91;;;1.79;46.84
21182;BME280;10749;46.296;7.524;2023-01-31T01:18:34;95659.34;;;1.80;46.83
21182;BME280;10749;46.296;7.524;2023-01-31T01:21:30;95655.28;;;1.76;46.73
21182;BME280;10749;46.296;7.524;2023-01-31T01:23:58;95649.78;;;1.68;46.71
21182;BME280;10749;46.296;7.524;2023-01-31T01:26:31;95655.50;;;1.73;46.67
21182;BME280;10749;46.296;7.524;2023-01-31T01:28:58;95650.28;;;1.73;46.73
21182;BME280;10749;46.296;7.524;2023-01-31T01:31:25;95658.31;;;1.70;47.01
21182;BME280;10749;46.296;7.524;2023-01-31T01:33:56;95660.81;;;1.72;46.97
21182;BME280;10749;46.296;7.524;2023-01-31T01:36:22;95659.97;;;1.71;46.67
21182;BME280;10749;46.296;7.524;2023-01-31T01:38:48;95670.03;;;1.65;46.78
21182;BME280;10749;46.296;7.524;2023-01-31T01:41:13;95671.72;;;1.53;47.08
21182;BME280;10749;46.296;7.524;2023-01-31T01:43:50;95672.41;;;1.55;46.75
21182;BME280;10749;46.296;7.524;2023-01-31T01:46:31;95679.94;;;1.47;46.91
21182;BME280;10749;46.296;7.524;2023-01-31T01:49:22;95678.88;;;1.37;46.84
21182;BME280;10749;46.296;7.524;2023-01-31T01:51:50;95691.91;;;1.37;47.03
21182;BME280;10749;46.296;7.524;2023-01-31T01:54:24;95696.81;;;1.42;47.03
21182;BME280;10749;46.296;7.524;2023-01-31T01:56:54;95694.44;;;1.38;47.21
21182;BME280;10749;46.296;7.524;2023-01-31T01:59:33;95693.59;;;1.38;47.36
21182;BME280;10749;46.296;7.524;2023-01-31T02:02:00;95685.25;;;1.33;47.21
21182;BME280;10749;46.296;7.524;2023-01-31T02:04:31;95688.59;;;1.35;47.20
21182;BME280;10749;46.296;7.524;2023-01-31T02:06:58;95689.66;;;1.32;46.97
21182;BME280;10749;46.296;7.524;2023-01-31T02:09:47;95690.47;;;1.33;46.80
21182;BME280;10749;46.296;7.524;2023-01-31T02:12:16;95693.38;;;1.28;47.03
21182;BME280;10749;46.296;7.524;2023-01-31T02:14:43;95688.81;;;1.32;47.15
21182;BME280;10749;46.296;7.524;2023-01-31T02:17:14;95697.78;;;1.28;47.18
21182;BME280;10749;46.296;7.524;2023-01-31T02:19:51;95699.25;;;1.32;47.17
21182;BME280;10749;46.296;7.524;2023-01-31T02:30:50;95708.00;;;1.31;47.45
21182;BME280;10749;46.296;7.524;2023-01-31T02:38:32;95724.03;;;1.25;46.65
21182;BME280;10749;46.296;7.524;2023-01-31T02:43:45;95730.59;;;1.05;47.22
21182;BME280;10749;46.296;7.524;2023-01-31T02:46:51;95720.06;;;1.07;47.39
21182;BME280;10749;46.296;7.524;2023-01-31T02:49:45;95727.47;;;1.13;47.48
21182;BME280;10749;46.296;7.524;2023-01-31T02:54:50;95724.78;;;1.27;47.54
21182;BME280;10749;46.296;7.524;2023-01-31T02:57:36;95724.56;;;1.30;47.69
21182;BME280;10749;46.296;7.524;2023-01-31T03:00:04;95732.63;;;1.27;47.61
21182;BME280;10749;46.296;7.524;2023-01-31T03:02:30;95737.63;;;1.30;47.69
21182;BME280;10749;46.296;7.524;2023-01-31T03:04:56;95727.81;;;1.33;47.78
21182;BME280;10749;46.296;7.524;2023-01-31T03:07:23;95736.16;;;1.38;47.66
21182;BME280;10749;46.296;7.524;2023-01-31T03:12:45;95730.03;;;1.39;46.99
21182;BME280;10749;46.296;7.524;2023-01-31T03:15:18;95732.16;;;1.20;46.67
21182;BME280;10749;46.296;7.524;2023-01-31T03:18:08;95743.00;;;1.02;47.08
21182;BME280;10749;46.296;7.524;2023-01-31T03:23:15;95765.13;;;0.82;47.49
21182;BME280;10749;46.296;7.524;2023-01-31T03:25:42;95767.53;;;0.85;47.29
21182;BME280;10749;46.296;7.524;2023-01-31T03:28:12;95768.59;;;0.82;47.63
21182;BME280;10749;46.296;7.524;2023-01-31T03:30:44;95764.84;;;0.86;47.66
21182;BME280;10749;46.296;7.524;2023-01-31T03:33:16;95769.75;;;0.91;47.43
21182;BME280;10749;46.296;7.524;2023-01-31T03:35:46;95762.97;;;0.88;47.63
21182;BME280;10749;46.296;7.524;2023-01-31T03:38:20;95771.72;;;0.87;47.68
21182;BME280;10749;46.296;7.524;2023-01-31T03:41:07;95771.72;;;0.87;47.78
21182;BME280;10749;46.296;7.524;2023-01-31T03:44:00;95771.31;;;0.93;47.64
21182;BME280;10749;46.296;7.524;2023-01-31T03:46:38;95767.88;;;0.93;47.60
21182;BME280;10749;46.296;7.524;2023-01-31T03:49:07;95774.84;;;0.92;47.31
21182;BME280;10749;46.296;7.524;2023-01-31T03:51:36;95778.59;;;0.88;47.57
21182;BME280;10749;46.296;7.524;2023-01-31T03:54:07;95782.97;;;0.88;47.48
21182;BME280;10749;46.296;7.524;2023-01-31T03:56:40;95787.34;;;0.87;47.68
21182;BME280;10749;46.296;7.524;2023-01-31T03:59:16;95789.03;;;0.88;47.47
21182;BME280;10749;46.296;7.524;2023-01-31T04:01:45;95780.47;;;0.86;47.66
21182;BME280;10749;46.296;7.524;2023-01-31T04:04:23;95795.72;;;0.92;47.83
21182;BME280;10749;46.296;7.524;2023-01-31T04:06:50;95800.00;;;0.93;47.81
21182;BME280;10749;46.296;7.524;2023-01-31T04:09:15;95802.97;;;0.87;47.71
21182;BME280;10749;46.296;7.524;2023-01-31T04:11:41;95808.03;;;0.90;47.91
21182;BME280;10749;46.296;7.524;2023-01-31T04:14:08;95808.94;;;0.89;47.88
21182;BME280;10749;46.296;7.524;2023-01-31T04:16:34;95810.09;;;0.85;48.07
21182;BME280;10749;46.296;7.524;2023-01-31T04:18:59;95809.88;;;0.88;47.57
21182;BME280;10749;46.296;7.524;2023-01-31T04:21:25;95816.13;;;0.86;48.09
21182;BME280;10749;46.296;7.524;2023-01-31T04:23:50;95814.44;;;0.85;48.38
21182;BME280;10749;46.296;7.524;2023-01-31T04:26:15;95821.22;;;0.87;48.31
21182;BME280;10749;46.296;7.524;2023-01-31T04:28:41;95816.00;;;0.87;48.25
21182;BME280;10749;46.296;7.524;2023-01-31T04:31:06;95818.25;;;0.93;48.30
21182;BME280;10749;46.296;7.524;2023-01-31T04:33:31;95819.94;;;0.95;47.84
21182;BME280;10749;46.296;7.524;2023-01-31T04:35:57;95826.16;;;0.92;48.10
21182;BME280;10749;46.296;7.524;2023-01-31T04:38:22;95822.69;;;0.91;48.13
21182;BME280;10749;46.296;7.524;2023-01-31T04:40:48;95832.31;;;0.91;48.19
21182;BME280;10749;46.296;7.524;2023-01-31T04:43:13;95836.34;;;0.82;48.24
21182;BME280;10749;46.296;7.524;2023-01-31T04:45:39;95839.97;;;0.80;48.26
21182;BME280;10749;46.296;7.524;2023-01-31T04:48:04;95846.84;;;0.81;48.23
21182;BME280;10749;46.296;7.524;2023-01-31T04:50:30;95849.47;;;0.81;48.32
21182;BME280;10749;46.296;7.524;2023-01-31T04:52:55;95850.59;;;0.77;48.60
21182;BME280;10749;46.296;7.524;2023-01-31T04:55:20;95854.03;;;0.77;48.69
21182;BME280;10749;46.296;7.524;2023-01-31T04:57:46;95864.16;;;0.82;48.60
21182;BME280;10749;46.296;7.524;2023-01-31T05:00:11;95865.19;;;0.79;48.65
21182;BME280;10749;46.296;7.524;2023-01-31T05:02:37;95864.25;;;0.80;48.63
21182;BME280;10749;46.296;7.524;2023-01-31T05:05:03;95868.53;;;0.81;49.14
21182;BME280;10749;46.296;7.524;2023-01-31T05:07:29;95866.50;;;0.86;48.62
21182;BME280;10749;46.296;7.524;2023-01-31T05:09:54;95871.41;;;0.91;48.74
21182;BME280;10749;46.296;7.524;2023-01-31T05:12:20;95862.84;;;0.89;48.94
21182;BME280;10749;46.296;7.524;2023-01-31T05:14:45;95865.53;;;0.87;49.00
21182;BME280;10749;46.296;7.524;2023-01-31T05:17:10;95867.22;;;0.88;48.97
21182;BME280;10749;46.296;7.524;2023-01-31T05:19:36;95869.25;;;0.98;48.92
21182;BME280;10749;46.296;7.524;2023-01-31T05:22:01;95867.47;;;0.98;48.85
21182;BME280;10749;46.296;7.524;2023-01-31T05:24:29;95875.19;;;1.00;49.08
21182;BME280;10749;46.296;7.524;2023-01-31T05:26:55;95884.81;;;0.99;49.01
21182;BME280;10749;46.296;7.524;2023-01-31T05:29:31;95883.97;;;0.99;48.91
21182;BME280;10749;46.296;7.524;2023-01-31T05:31:57;95876.78;;;1.02;49.10
21182;BME280;10749;46.296;7.524;2023-01-31T05:34:24;95875.94;;;1.02;48.90
21182;BME280;10749;46.296;7.524;2023-01-31T05:36:52;95878.13;;;1.08;48.92
21182;BME280;10749;46.296;7.524;2023-01-31T05:39:17;95880.13;;;1.04;49.19
21182;BME280;10749;46.296;7.524;2023-01-31T05:41:43;95875.53;;;1.08;49.13
21182;BME280;10749;46.296;7.524;2023-01-31T05:44:08;95885.03;;;1.09;49.32
21182;BME280;10749;46.296;7.524;2023-01-31T05:46:34;95882.34;;;1.10;48.82
21182;BME280;10749;46.296;7.524;2023-01-31T05:49:00;95889.53;;;1.07;48.84
21182;BME280;10749;46.296;7.524;2023-01-31T05:51:25;95893.56;;;0.98;49.17
21182;BME280;10749;46.296;7.524;2023-01-31T05:53:50;95892.72;;;0.98;49.38
21182;BME280;10749;46.296;7.524;2023-01-31T05:56:16;95890.81;;;1.00;49.30
21182;BME280;10749;46.296;7.524;2023-01-31T05:58:41;95881.66;;;0.94;49.27
21182;BME280;10749;46.296;7.524;2023-01-31T06:01:07;95886.66;;;0.97;49.32
21182;BME280;10749;46.296;7.524;2023-01-31T06:03:32;95897.00;;;0.99;49.23
21182;BME280;10749;46.296;7.524;2023-01-31T06:05:58;95902.94;;;1.01;49.11
21182;BME280;10749;46.296;7.524;2023-01-31T06:08:23;95907.31;;;1.00;48.68
21182;BME280;10749;46.296;7.524;2023-01-31T06:10:48;95910.41;;;0.92;48.48
21182;BME280;10749;46.296;7.524;2023-01-31T06:13:14;95909.47;;;0.79;48.45
21182;BME280;10749;46.296;7.524;2023-01-31T06:15:43;95905.03;;;0.81;48.67
21182;BME280;10749;46.296;7.524;2023-01-31T06:18:08;95909.13;;;0.85;48.97
21182;BME280;10749;46.296;7.524;2023-01-31T06:20:33;95920.19;;;0.89;49.02
21182;BME280;10749;46.296;7.524;2023-01-31T06:22:59;95917.28;;;0.93;49.18
21182;BME280;10749;46.296;7.524;2023-01-31T06:25:25;95924.06;;;0.96;49.47
21182;BME280;10749;46.296;7.524;2023-01-31T06:27:50;95923.06;;;0.99;49.56
21182;BME280;10749;46.296;7.524;2023-01-31T06:30:16;95928.81;;;1.04;49.52
21182;BME280;10749;46.296;7.524;2023-01-31T06:32:41;95938.88;;;1.10;49.43
21182;BME280;10749;46.296;7.524;2023-01-31T06:35:07;95937.94;;;1.11;48.97
21182;BME280;10749;46.296;7.524;2023-01-31T06:37:32;95937.94;;;1.11;49.01
21182;BME280;10749;46.296;7.524;2023-01-31T06:39:57;95939.50;;;1.13;49.49
21182;BME280;10749;46.296;7.524;2023-01-31T06:42:23;95937.47;;;1.18;49.62
21182;BME280;10749;46.296;7.524;2023-01-31T06:44:48;95943.22;;;1.23;49.76
21182;BME280;10749;46.296;7.524;2023-01-31T06:47:14;95943.47;;;1.33;49.99
21182;BME280;10749;46.296;7.524;2023-01-31T06:49:39;95948.31;;;1.39;49.85
21182;BME280;10749;46.296;7.524;2023-01-31T06:52:04;95953.22;;;1.44;50.06
21182;BME280;10749;46.296;7.524;2023-01-31T06:54:30;95953.88;;;1.47;50.15
21182;BME280;10749;46.296;7.524;2023-01-31T06:56:55;95957.66;;;1.56;49.79
21182;BME280;10749;46.296;7.524;2023-01-31T06:59:21;95956.09;;;1.53;49.85
21182;BME280;10749;46.296;7.524;2023-01-31T07:01:46;95955.41;;;1.64;49.92
21182;BME280;10749;46.296;7.524;2023-01-31T07:04:11;95955.81;;;1.70;49.98
21182;BME280;10749;46.296;7.524;2023-01-31T07:06:36;95954.69;;;1.74;50.21
21182;BME280;10749;46.296;7.524;2023-01-31T07:09:02;95963.19;;;1.78;50.16
21182;BME280;10749;46.296;7.524;2023-01-31T07:11:27;95957.56;;;1.84;49.50
21182;BME280;10749;46.296;7.524;2023-01-31T07:13:53;95966.09;;;1.73;49.82
21182;BME280;10749;46.296;7.524;2023-01-31T07:16:18;95957.72;;;1.68;49.96
21182;BME280;10749;46.296;7.524;2023-01-31T07:18:44;95963.94;;;1.66;50.08
21182;BME280;10749;46.296;7.524;2023-01-31T07:21:09;95967.69;;;1.62;50.24
21182;BME280;10749;46.296;7.524;2023-01-31T07:23:35;95964.78;;;1.66;49.46
21182;BME280;10749;46.296;7.524;2023-01-31T07:26:02;95975.16;;;1.68;49.38
21182;BME280;10749;46.296;7.524;2023-01-31T07:28:28;95984.66;;;1.69;49.66
21182;BME280;10749;46.296;7.524;2023-01-31T07:30:53;95980.91;;;1.73;49.86
21182;BME280;10749;46.296;7.524;2023-01-31T07:33:18;95972.97;;;1.74;49.99
21182;BME280;10749;46.296;7.524;2023-01-31T07:35:44;95980.97;;;1.85;50.06
21182;BME280;10749;46.296;7.524;2023-01-31T07:38:09;95980.75;;;1.89;50.02
21182;BME280;10749;46.296;7.524;2023-01-31T07:40:34;95980.38;;;1.95;50.12
21182;BME280;10749;46.296;7.524;2023-01-31T07:43:00;95988.53;;;2.03;50.09
21182;BME280;10749;46.296;7.524;2023-01-31T07:45:26;95988.13;;;2.09;49.73
21182;BME280;10749;46.296;7.524;2023-01-31T07:47:51;95990.53;;;2.12;50.17
21182;BME280;10749;46.296;7.524;2023-01-31T07:50:17;96002.75;;;2.11;50.25
21182;BME280;10749;46.296;7.524;2023-01-31T07:52:42;95993.47;;;2.20;49.98
21182;BME280;10749;46.296;7.524;2023-01-31T07:55:08;95994.84;;;2.25;49.70
21182;BME280;10749;46.296;7.524;2023-01-31T07:57:33;95988.47;;;2.29;50.10
21182;BME280;10749;46.296;7.524;2023-01-31T07:59:59;95986.50;;;2.33;50.12
21182;BME280;10749;46.296;7.524;2023-01-31T08:02:25;95997.78;;;2.33;50.50
21182;BME280;10749;46.296;7.524;2023-01-31T08:05:09;96005.09;;;2.41;50.41
21182;BME280;10749;46.296;7.524;2023-01-31T08:07:35;96000.50;;;2.45;50.33
21182;BME280;10749;46.296;7.524;2023-01-31T08:10:01;95999.50;;;2.60;50.18
21182;BME280;10749;46.296;7.524;2023-01-31T08:12:26;95999.69;;;2.69;50.09
21182;BME280;10749;46.296;7.524;2023-01-31T08:14:51;96002.22;;;2.71;50.07
21182;BME280;10749;46.296;7.524;2023-01-31T08:17:16;95995.63;;;2.78;49.91
21182;BME280;10749;46.296;7.524;2023-01-31T08:19:42;96006.53;;;2.85;49.97
21182;BME280;10749;46.296;7.524;2023-01-31T08:22:07;96006.09;;;2.91;50.08
21182;BME280;10749;46.296;7.524;2023-01-31T08:24:33;96006.38;;;2.99;50.31
21182;BME280;10749;46.296;7.524;2023-01-31T08:26:59;96003.56;;;3.14;50.28
21182;BME280;10749;46.296;7.524;2023-01-31T08:29:25;96014.22;;;3.24;50.24
21182;BME280;10749;46.296;7.524;2023-01-31T08:31:50;96014.31;;;3.35;50.31
21182;BME280;10749;46.296;7.524;2023-01-31T08:34:16;96011.16;;;3.43;50.38
21182;BME280;10749;46.296;7.524;2023-01-31T08:36:42;96007.78;;;3.53;50.46
21182;BME280;10749;46.296;7.524;2023-01-31T08:39:08;96015.03;;;3.73;50.45
21182;BME280;10749;46.296;7.524;2023-01-31T08:41:34;96014.84;;;3.77;50.55
21182;BME280;10749;46.296;7.524;2023-01-31T08:44:01;96017.28;;;3.91;50.38
21182;BME280;10749;46.296;7.524;2023-01-31T08:46:31;96017.25;;;4.03;50.34
21182;BME280;10749;46.296;7.524;2023-01-31T08:48:58;96019.53;;;4.08;50.08
21182;BME280;10749;46.296;7.524;2023-01-31T08:51:23;96025.38;;;4.11;50.03
21182;BME280;10749;46.296;7.524;2023-01-31T08:53:50;96022.66;;;4.13;50.42
21182;BME280;10749;46.296;7.524;2023-01-31T08:56:15;96028.03;;;4.23;50.24
21182;BME280;10749;46.296;7.524;2023-01-31T08:58:43;96031.63;;;4.22;50.21
21182;BME280;10749;46.296;7.524;2023-01-31T09:01:14;96032.47;;;4.22;50.31
21182;BME280;10749;46.296;7.524;2023-01-31T09:03:40;96027.44;;;4.19;50.24
21182;BME280;10749;46.296;7.524;2023-01-31T09:06:09;96030.78;;;4.21;50.00
21182;BME280;10749;46.296;7.524;2023-01-31T09:08:35;96024.59;;;4.22;50.04
21182;BME280;10749;46.296;7.524;2023-01-31T09:11:00;96030.28;;;4.16;49.79
21182;BME280;10749;46.296;7.524;2023-01-31T09:13:27;96032.47;;;4.22;49.68
21182;BME280;10749;46.296;7.524;2023-01-31T09:16:07;96034.97;;;4.24;49.69
21182;BME280;10749;46.296;7.524;2023-01-31T09:18:34;96037.47;;;4.25;49.87
21182;BME280;10749;46.296;7.524;2023-01-31T09:21:14;96032.75;;;4.30;49.84
21182;BME280;10749;46.296;7.524;2023-01-31T09:23:40;96037.41;;;4.38;49.83
21182;BME280;10749;46.296;7.524;2023-01-31T09:26:06;96038.19;;;4.51;49.54
21182;BME280;10749;46.296;7.524;2023-01-31T09:28:32;96042.13;;;4.56;49.53
21182;BME280;10749;46.296;7.524;2023-01-31T09:31:06;96045.22;;;4.50;49.93
21182;BME280;10749;46.296;7.524;2023-01-31T09:33:32;96042.34;;;4.53;49.54
21182;BME280;10749;46.296;7.524;2023-01-31T09:36:03;96037.84;;;4.55;49.62
21182;BME280;10749;46.296;7.524;2023-01-31T09:38:29;96038.72;;;4.67;49.24
21182;BME280;10749;46.296;7.524;2023-01-31T09:40:56;96033.00;;;4.73;49.54
21182;BME280;10749;46.296;7.524;2023-01-31T09:43:28;96038.63;;;4.80;49.67
21182;BME280;10749;46.296;7.524;2023-01-31T09:45:57;96032.91;;;4.86;49.74
21182;BME280;10749;46.296;7.524;2023-01-31T09:48:28;96041.94;;;4.82;49.82
21182;BME280;10749;46.296;7.524;2023-01-31T09:50:55;96040.66;;;4.87;49.78
21182;BME280;10749;46.296;7.524;2023-01-31T09:53:27;96046.50;;;4.91;49.39
21182;BME280;10749;46.296;7.524;2023-01-31T09:58:54;96054.63;;;4.99;49.31
21182;BME280;10749;46.296;7.524;2023-01-31T10:04:18;96054.44;;;5.13;49.28
21182;BME280;10749;46.296;7.524;2023-01-31T10:07:00;96054.19;;;5.27;49.27
21182;BME280;10749;46.296;7.524;2023-01-31T10:12:06;96054.81;;;5.75;49.95
21182;BME280;10749;46.296;7.524;2023-01-31T10:14:56;96049.59;;;6.29;50.31
21182;BME280;10749;46.296;7.524;2023-01-31T10:17:24;96059.91;;;6.53;50.25
21182;BME280;10749;46.296;7.524;2023-01-31T10:22:45;96051.44;;;6.49;49.81
21182;BME280;10749;46.296;7.524;2023-01-31T10:25:32;96046.78;;;6.42;49.55
21182;BME280;10749;46.296;7.524;2023-01-31T10:28:03;96046.41;;;6.46;49.59
21182;BME280;10749;46.296;7.524;2023-01-31T10:33:58;96030.44;;;6.59;49.59
21182;BME280;10749;46.296;7.524;2023-01-31T10:36:39;96038.50;;;6.58;49.68
21182;BME280;10749;46.296;7.524;2023-01-31T10:45:17;96020.66;;;6.82;49.41
21182;BME280;10749;46.296;7.524;2023-01-31T10:47:53;96025.66;;;6.85;49.32
21182;BME280;10749;46.296;7.524;2023-01-31T10:56:42;96008.72;;;7.29;49.49
21182;BME280;10749;46.296;7.524;2023-01-31T10:58:48;96004.28;;;7.29;49.25
21182;BME280;10749;46.296;7.524;2023-01-31T11:01:15;96002.19;;;7.23;49.09
21182;BME280;10749;46.296;7.524;2023-01-31T11:03:47;96002.38;;;7.31;49.12
21182;BME280;10749;46.296;7.524;2023-01-31T11:06:14;96003.16;;;7.53;49.33
21182;BME280;10749;46.296;7.524;2023-01-31T11:08:41;96006.97;;;7.79;49.70
21182;BME280;10749;46.296;7.524;2023-01-31T11:11:13;96014.41;;;7.95;49.36
21182;BME280;10749;46.296;7.524;2023-01-31T11:13:55;96004.56;;;8.06;49.58
21182;BME280;10749;46.296;7.524;2023-01-31T11:16:20;96000.25;;;8.05;49.21
21182;BME280;10749;46.296;7.524;2023-01-31T11:18:48;95994.31;;;8.22;49.36
21182;BME280;10749;46.296;7.524;2023-01-31T11:21:20;95996.03;;;8.43;49.25
21182;BME280;10749;46.296;7.524;2023-01-31T11:23:47;95989.47;;;8.66;49.54
21182;BME280;10749;46.296;7.524;2023-01-31T11:26:47;95994.88;;;8.84;49.24
21182;BME280;10749;46.296;7.524;2023-01-31T11:29:16;95989.31;;;8.96;49.22
21182;BME280;10749;46.296;7.524;2023-01-31T11:31:44;95990.50;;;9.11;49.25
21182;BME280;10749;46.296;7.524;2023-01-31T11:34:22;95983.22;;;9.33;49.16
21182;BME280;10749;46.296;7.524;2023-01-31T11:36:49;95985.94;;;9.50;48.97
21182;BME280;10749;46.296;7.524;2023-01-31T11:39:37;95991.09;;;9.52;48.78
21182;BME280;10749;46.296;7.524;2023-01-31T11:42:06;95985.94;;;9.50;48.49
21182;BME280;10749;46.296;7.524;2023-01-31T11:44:31;95977.38;;;9.66;48.46
21182;BME280;10749;46.296;7.524;2023-01-31T11:46:59;95979.16;;;9.75;48.62
21182;BME280;10749;46.296;7.524;2023-01-31T11:49:37;95971.50;;;9.99;48.19
21182;BME280;10749;46.296;7.524;2023-01-31T11:52:31;95979.63;;;10.15;48.16
21182;BME280;10749;46.296;7.524;2023-01-31T11:54:59;95982.63;;;10.30;48.27
21182;BME280;10749;46.296;7.524;2023-01-31T11:57:34;95980.19;;;10.37;48.02
21182;BME280;10749;46.296;7.524;2023-01-31T12:00:03;95977.22;;;10.40;48.09
21182;BME280;10749;46.296;7.524;2023-01-31T12:02:39;95977.69;;;10.53;47.75
21182;BME280;10749;46.296;7.524;2023-01-31T12:05:16;95974.06;;;10.54;47.46
21182;BME280;10749;46.296;7.524;2023-01-31T12:10:44;95972.63;;;10.59;47.98
21182;BME280;10749;46.296;7.524;2023-01-31T12:13:18;95974.19;;;10.70;47.46
21182;BME280;10749;46.296;7.524;2023-01-31T12:15:46;95973.06;;;10.73;47.17
21182;BME280;10749;46.296;7.524;2023-01-31T12:18:17;95965.50;;;10.78;46.93
21182;BME280;10749;46.296;7.524;2023-01-31T12:26:51;95948.38;;;11.16;47.54
21182;BME280;10749;46.296;7.524;2023-01-31T12:29:36;95943.13;;;11.24;46.87
21182;BME280;10749;46.296;7.524;2023-01-31T12:40:12;95935.84;;;11.93;46.63
21182;BME280;10749;46.296;7.524;2023-01-31T12:42:56;95931.81;;;11.81;46.05
21182;BME280;10749;46.296;7.524;2023-01-31T12:50:49;95921.81;;;11.67;46.21
21182;BME280;10749;46.296;7.524;2023-01-31T12:56:17;95911.91;;;11.77;45.99
21182;BME280;10749;46.296;7.524;2023-01-31T12:59:02;95905.53;;;12.04;45.81
21182;BME280;10749;46.296;7.524;2023-01-31T13:01:36;95891.63;;;12.42;45.84
21182;BME280;10749;46.296;7.524;2023-01-31T13:04:12;95888.16;;;12.50;45.43
21182;BME280;10749;46.296;7.524;2023-01-31T13:06:47;95878.50;;;12.73;45.30
21182;BME280;10749;46.296;7.524;2023-01-31T13:09:21;95871.50;;;12.88;45.08
21182;BME280;10749;46.296;7.524;2023-01-31T13:11:53;95863.53;;;12.88;44.75
21182;BME280;10749;46.296;7.524;2023-01-31T13:14:22;95868.53;;;12.67;44.71
21182;BME280;10749;46.296;7.524;2023-01-31T13:16:57;95862.09;;;12.54;44.46
21182;BME280;10749;46.296;7.524;2023-01-31T13:19:49;95848.84;;;12.29;44.50
21182;BME280;10749;46.296;7.524;2023-01-31T13:22:21;95847.66;;;12.32;44.35
21182;BME280;10749;46.296;7.524;2023-01-31T13:24:50;95848.66;;;12.47;44.43
21182;BME280;10749;46.296;7.524;2023-01-31T13:29:48;95837.34;;;12.61;43.95
21182;BME280;10749;46.296;7.524;2023-01-31T13:32:37;95832.69;;;12.55;44.27
21182;BME280;10749;46.296;7.524;2023-01-31T13:35:17;95824.59;;;12.32;44.13
21182;BME280;10749;46.296;7.524;2023-01-31T13:37:47;95817.78;;;11.97;44.58
21182;BME280;10749;46.296;7.524;2023-01-31T13:40:18;95823.78;;;11.99;44.50
21182;BME280;10749;46.296;7.524;2023-01-31T13:42:44;95820.13;;;11.92;44.89
21182;BME280;10749;46.296;7.524;2023-01-31T13:45:26;95816.47;;;12.10;44.56
21182;BME280;10749;46.296;7.524;2023-01-31T13:48:05;95810.50;;;12.24;44.20
21182;BME280;10749;46.296;7.524;2023-01-31T13:50:41;95815.47;;;12.35;44.13
21182;BME280;10749;46.296;7.524;2023-01-31T13:53:30;95807.66;;;12.49;43.79
21182;BME280;10749;46.296;7.524;2023-01-31T13:55:57;95804.50;;;12.54;43.67
21182;BME280;10749;46.296;7.524;2023-01-31T13:58:30;95807.47;;;12.59;43.58
21182;BME280;10749;46.296;7.524;2023-01-31T14:01:01;95811.91;;;12.91;44.07
21182;BME280;10749;46.296;7.524;2023-01-31T14:03:28;95817.50;;;13.20;44.96
21182;BME280;10749;46.296;7.524;2023-01-31T14:05:56;95825.34;;;13.45;44.93
21182;BME280;10749;46.296;7.524;2023-01-31T14:10:50;95822.09;;;12.55;42.27
21182;BME280;10749;46.296;7.524;2023-01-31T14:15:56;95812.13;;;11.84;41.63
21182;BME280;10749;46.296;7.524;2023-01-31T14:18:39;95804.44;;;11.57;41.01
21182;BME280;10749;46.296;7.524;2023-01-31T14:23:56;95802.13;;;10.78;41.15
21182;BME280;10749;46.296;7.524;2023-01-31T14:29:23;95787.75;;;10.47;40.70
21182;BME280;10749;46.296;7.524;2023-01-31T14:31:51;95786.41;;;10.43;41.45
21182;BME280;10749;46.296;7.524;2023-01-31T14:34:19;95792.34;;;10.45;41.56
21182;BME280;10749;46.296;7.524;2023-01-31T14:37:11;95798.63;;;10.44;41.34
21182;BME280;10749;46.296;7.524;2023-01-31T14:40:02;95801.44;;;10.42;41.50
21182;BME280;10749;46.296;7.524;2023-01-31T14:42:49;95796.25;;;10.33;41.21
21182;BME280;10749;46.296;7.524;2023-01-31T14:46:02;95803.22;;;9.98;41.19
21182;BME280;10749;46.296;7.524;2023-01-31T14:57:12;95787.88;;;9.49;40.97
21182;BME280;10749;46.296;7.524;2023-01-31T15:04:59;95779.03;;;9.22;40.93
21182;BME280;10749;46.296;7.524;2023-01-31T15:07:25;95771.56;;;9.18;41.08